Time;durP1;ratioP1;P1;durP2;ratioP2;P2;SDS_P1;SDS_P2;PMS_P1;PMS_P2;Temp;Humidity;BMP_temperature;BMP_pressure;BME280_temperature;BME280_humidity;BME280_pressure;Samples;Min_cycle;Max_cycle;Signal;HPM_P1;HPM_P2
2023/05/20 00:01:56;;;;;;;150.30;137.15;;;;;;;13.54;100.00;101427.88;5023478;28;20053;-76
2023/05/20 00:04:23;;;;;;;126.13;113.78;;;;;;;13.52;100.00;101419.25;5024125;28;20057;-76
2023/05/20 00:06:50;;;;;;;146.98;133.57;;;;;;;13.39;100.00;101411.28;5021321;28;20410;-76
2023/05/20 00:09:17;;;;;;;126.47;114.43;;;;;;;13.38;100.00;101415.00;5021406;28;20041;-76
2023/05/20 00:11:46;;;;;;;122.03;110.43;;;;;;;13.54;100.00;101411.06;5022945;28;20112;-75
2023/05/20 00:14:13;;;;;;;105.15;94.75;;;;;;;13.54;100.00;101413.72;5022923;28;20054;-75
2023/05/20 00:16:40;;;;;;;122.20;110.72;;;;;;;13.44;100.00;101408.81;5024313;28;20052;-76
2023/05/20 00:19:07;;;;;;;121.05;109.78;;;;;;;12.58;100.00;101399.75;5016677;28;20440;-75
2023/05/20 00:21:33;;;;;;;125.80;114.65;;;;;;;12.45;100.00;101397.06;5025867;28;20049;-75
2023/05/20 00:24:00;;;;;;;111.20;100.72;;;;;;;12.48;100.00;101388.66;5020708;28;20050;-75
2023/05/20 00:26:29;;;;;;;131.35;119.50;;;;;;;12.73;100.00;101388.91;5020123;28;20123;-76
2023/05/20 00:28:57;;;;;;;119.80;108.72;;;;;;;12.61;100.00;101383.34;5019463;28;20057;-76
2023/05/20 00:31:26;;;;;;;129.93;118.50;;;;;;;12.32;100.00;101389.88;5024909;28;20398;-75
2023/05/20 00:33:54;;;;;;;113.25;101.97;;;;;;;12.18;100.00;101395.34;5020088;28;20045;-76
2023/05/20 00:36:21;;;;;;;127.30;115.40;;;;;;;12.48;100.00;101394.00;5024302;28;20058;-76
2023/05/20 00:38:48;;;;;;;126.55;114.80;;;;;;;12.68;100.00;101387.88;5021219;28;20054;-76
2023/05/20 00:41:15;;;;;;;124.85;112.97;;;;;;;12.45;100.00;101390.91;5023965;28;20519;-76
2023/05/20 00:43:41;;;;;;;127.60;115.40;;;;;;;12.40;100.00;101388.84;5015141;28;20073;-75
2023/05/20 00:46:10;;;;;;;129.25;117.47;;;;;;;11.96;100.00;101386.66;5019257;28;20054;-75
2023/05/20 00:48:41;;;;;;;123.80;112.40;;;;;;;12.50;100.00;101388.47;5021122;28;20084;-76
2023/05/20 00:51:08;;;;;;;120.75;108.68;;;;;;;12.60;100.00;101381.72;5023244;28;20064;-76
2023/05/20 00:53:36;;;;;;;124.05;112.60;;;;;;;12.54;100.00;101379.84;5022259;28;20132;-76
2023/05/20 00:56:03;;;;;;;115.57;104.82;;;;;;;12.59;100.00;101373.94;5026029;28;20050;-76
2023/05/20 00:58:30;;;;;;;119.20;107.95;;;;;;;12.51;100.00;101374.94;5023055;28;20049;-75
2023/05/20 01:00:57;;;;;;;120.18;108.78;;;;;;;12.52;100.00;101379.22;5020653;28;20053;-76
2023/05/20 01:03:26;;;;;;;114.85;103.75;;;;;;;12.53;100.00;101374.75;5030413;28;20529;-76
2023/05/20 01:05:52;;;;;;;116.15;104.55;;;;;;;12.55;100.00;101372.69;5025367;28;20046;-75
2023/05/20 01:08:20;;;;;;;129.75;117.85;;;;;;;12.29;100.00;101371.63;5019295;28;20417;-76
2023/05/20 01:10:49;;;;;;;135.15;122.68;;;;;;;12.45;100.00;101365.09;5022040;28;20282;-75
2023/05/20 01:13:20;;;;;;;127.38;115.70;;;;;;;12.47;100.00;101360.38;5021847;28;20059;-75
2023/05/20 01:15:48;;;;;;;142.13;129.48;;;;;;;12.50;100.00;101362.66;5020828;28;20049;-74
2023/05/20 01:18:17;;;;;;;135.95;124.15;;;;;;;12.36;100.00;101350.31;5019631;28;20557;-74
2023/05/20 01:20:49;;;;;;;124.15;112.45;;;;;;;12.36;100.00;101360.97;5019227;28;20180;-75
2023/05/20 01:23:17;;;;;;;135.68;123.68;;;;;;;12.40;100.00;101364.88;5020472;28;20077;-75
2023/05/20 01:25:44;;;;;;;128.40;116.55;;;;;;;12.42;100.00;101352.19;5020477;28;20616;-76
2023/05/20 01:28:16;;;;;;;154.23;141.32;;;;;;;12.49;100.00;101362.84;5011726;28;20502;-75
2023/05/20 01:30:52;;;;;;;135.23;123.35;;;;;;;12.49;100.00;101362.84;5019846;28;20054;-76
2023/05/20 01:33:22;;;;;;;120.40;109.40;;;;;;;12.48;100.00;101366.53;5020085;28;20510;-76
2023/05/20 01:35:49;;;;;;;124.47;113.40;;;;;;;12.49;100.00;101374.31;5023387;28;20049;-76
2023/05/20 01:38:19;;;;;;;135.02;122.43;;;;;;;12.41;100.00;101374.53;5016535;28;20049;-76
2023/05/20 01:40:47;;;;;;;131.05;119.05;;;;;;;12.35;100.00;101378.81;5016394;28;20061;-76
2023/05/20 01:43:15;;;;;;;148.68;135.50;;;;;;;12.42;100.00;101386.00;5021385;28;20060;-76
2023/05/20 01:45:42;;;;;;;144.98;132.35;;;;;;;12.73;100.00;101385.41;5019951;28;20060;-76
2023/05/20 01:48:11;;;;;;;153.00;139.68;;;;;;;12.77;100.00;101381.34;5023046;28;20038;-76
2023/05/20 01:50:38;;;;;;;163.85;150.00;;;;;;;12.73;100.00;101380.09;5022530;28;20050;-75
2023/05/20 01:53:07;;;;;;;134.05;122.63;;;;;;;12.55;100.00;101372.69;5020994;28;20534;-75
2023/05/20 01:55:35;;;;;;;130.73;119.55;;;;;;;12.64;100.00;101379.47;5017099;28;20051;-76
2023/05/20 01:58:02;;;;;;;124.80;113.53;;;;;;;12.58;100.00;101373.09;5016665;28;20049;-74
2023/05/20 02:00:29;;;;;;;134.98;123.50;;;;;;;12.65;100.00;101375.78;5019928;28;20067;-76
2023/05/20 02:02:56;;;;;;;119.40;107.13;;;;;;;12.55;100.00;101381.50;5022436;28;20053;-76
2023/05/20 02:05:23;;;;;;;119.72;108.25;;;;;;;12.50;100.00;101383.97;5020572;28;20045;-76
2023/05/20 02:07:50;;;;;;;120.03;109.28;;;;;;;12.68;100.00;101377.19;5017809;28;20053;-76
2023/05/20 02:10:16;;;;;;;107.55;97.50;;;;;;;12.49;100.00;101384.97;5021962;28;20056;-76
2023/05/20 02:12:46;;;;;;;112.00;101.43;;;;;;;12.63;100.00;101380.50;5020334;28;20056;-76
2023/05/20 02:15:13;;;;;;;115.80;104.65;;;;;;;12.54;100.00;101382.53;5021273;28;20056;-75
2023/05/20 02:17:42;;;;;;;118.63;107.38;;;;;;;12.66;100.00;101379.28;5021078;28;20045;-76
2023/05/20 02:20:10;;;;;;;120.13;108.32;;;;;;;12.72;100.00;101375.78;5021492;28;20110;-76
2023/05/20 02:22:37;;;;;;;119.10;107.72;;;;;;;12.59;100.00;101388.06;5021099;28;20857;-76
2023/05/20 02:25:04;;;;;;;127.55;115.10;;;;;;;12.73;100.00;101380.09;5020922;28;20053;-76
2023/05/20 02:27:31;;;;;;;118.65;107.25;;;;;;;12.66;100.00;101382.75;5018405;28;20046;-76
2023/05/20 02:30:00;;;;;;;123.05;111.55;;;;;;;12.80;100.00;101380.94;5019983;28;20055;-76
2023/05/20 02:32:27;;;;;;;121.95;110.03;;;;;;;12.78;100.00;101386.44;5019302;28;20050;-75
2023/05/20 02:34:54;;;;;;;149.95;136.77;;;;;;;12.77;100.00;101392.81;5029445;28;20049;-76
2023/05/20 02:37:21;;;;;;;149.73;137.13;;;;;;;12.94;100.00;101400.41;5022383;28;20053;-76
2023/05/20 02:39:48;;;;;;;123.90;112.22;;;;;;;12.27;100.00;101396.81;5013089;28;20053;-76
2023/05/20 02:42:15;;;;;;;121.57;110.32;;;;;;;12.72;100.00;101397.94;5021674;28;20161;-76
2023/05/20 02:44:41;;;;;;;123.00;112.03;;;;;;;12.47;100.00;101399.53;5020416;28;20053;-76
2023/05/20 02:47:10;;;;;;;131.25;119.78;;;;;;;12.82;100.00;101405.50;5018350;28;20054;-75
2023/05/20 02:49:37;;;;;;;116.53;105.07;;;;;;;12.43;100.00;101403.59;5010538;28;20054;-76
2023/05/20 02:52:04;;;;;;;101.15;91.15;;;;;;;12.55;100.00;101404.66;5020976;28;20049;-75
2023/05/20 02:54:31;;;;;;;109.38;99.20;;;;;;;12.57;100.00;101406.09;5020920;28;20060;-75
2023/05/20 02:56:58;;;;;;;106.05;96.10;;;;;;;12.65;100.00;101405.09;5016338;28;20520;-74
2023/05/20 02:59:25;;;;;;;97.43;88.18;;;;;;;12.68;100.00;101419.84;5021787;28;20046;-75
2023/05/20 03:01:51;;;;;;;99.13;89.63;;;;;;;12.75;100.00;101415.38;5021315;28;20053;-75
2023/05/20 03:04:20;;;;;;;98.63;88.88;;;;;;;12.73;100.00;101406.75;5021950;28;20053;-74
2023/05/20 03:06:47;;;;;;;98.07;88.80;;;;;;;12.61;100.00;101423.31;5017375;28;20445;-75
2023/05/20 03:09:14;;;;;;;94.75;85.88;;;;;;;12.27;100.00;101415.44;5020414;28;20137;-75
2023/05/20 03:11:41;;;;;;;93.85;84.47;;;;;;;12.37;100.00;101421.22;5019610;28;20053;-74
2023/05/20 03:14:07;;;;;;;94.45;85.45;;;;;;;12.52;100.00;101419.19;5019258;28;20056;-74
2023/05/20 03:16:35;;;;;;;102.85;93.40;;;;;;;12.58;100.00;101420.25;5015077;28;20053;-75
2023/05/20 03:19:02;;;;;;;97.28;88.07;;;;;;;12.52;100.00;101418.38;5020518;28;20116;-74
2023/05/20 03:21:30;;;;;;;97.05;88.00;;;;;;;12.18;100.00;101425.47;5019523;28;20057;-75
2023/05/20 03:23:57;;;;;;;101.80;92.03;;;;;;;12.23;100.00;101428.34;5020273;28;20057;-75
2023/05/20 03:26:24;;;;;;;107.95;97.95;;;;;;;12.53;100.00;101420.03;5019716;28;20429;-74
2023/05/20 03:28:51;;;;;;;108.93;99.22;;;;;;;12.50;100.00;101428.44;5021380;28;20507;-74
2023/05/20 03:31:18;;;;;;;104.97;95.07;;;;;;;12.59;100.00;101443.22;5012590;28;20058;-74
2023/05/20 03:33:45;;;;;;;100.55;90.53;;;;;;;12.36;100.00;101444.38;5021077;28;20049;-74
2023/05/20 03:36:12;;;;;;;94.85;85.72;;;;;;;12.42;100.00;101434.75;5019379;28;20049;-74
2023/05/20 03:38:40;;;;;;;92.32;83.38;;;;;;;12.44;100.00;101437.25;5019556;28;20157;-75
2023/05/20 03:41:07;;;;;;;95.95;86.70;;;;;;;12.50;100.00;101431.09;5016212;28;20054;-74
2023/05/20 03:43:34;;;;;;;96.63;87.22;;;;;;;12.58;100.00;101430.91;5022851;28;20441;-75
2023/05/20 03:46:01;;;;;;;107.13;97.72;;;;;;;12.65;100.00;101437.09;5017219;28;20160;-74
2023/05/20 03:48:27;;;;;;;106.00;96.55;;;;;;;12.51;100.00;101443.41;5019287;28;20054;-74
2023/05/20 03:50:57;;;;;;;95.65;86.65;;;;;;;12.36;100.00;101432.91;5021210;28;20053;-74
2023/05/20 03:53:24;;;;;;;98.40;88.78;;;;;;;12.70;100.00;101429.28;5017725;28;20042;-74
2023/05/20 03:55:52;;;;;;;103.30;93.43;;;;;;;12.54;100.00;101433.16;5025617;28;20045;-74
2023/05/20 03:58:21;;;;;;;109.78;99.78;;;;;;;12.89;100.00;101433.03;5018592;28;20057;-73
2023/05/20 04:00:47;;;;;;;109.53;99.78;;;;;;;12.56;100.00;101428.44;5016122;28;20111;-74
2023/05/20 04:03:15;;;;;;;109.80;99.10;;;;;;;12.75;100.00;101434.03;5027752;28;20050;-74
2023/05/20 04:05:41;;;;;;;106.78;96.30;;;;;;;13.12;100.00;101437.13;5021661;28;20078;-75
2023/05/20 04:08:08;;;;;;;110.45;99.78;;;;;;;13.21;100.00;101434.03;5017583;28;20057;-74
2023/05/20 04:10:35;;;;;;;107.18;97.43;;;;;;;13.27;100.00;101445.78;5022539;28;20530;-74
2023/05/20 04:13:03;;;;;;;103.68;93.85;;;;;;;13.27;100.00;101443.09;5024953;28;20049;-74
2023/05/20 04:15:30;;;;;;;107.80;97.82;;;;;;;13.39;100.00;101446.78;5020395;28;20057;-74
2023/05/20 04:17:57;;;;;;;104.13;94.22;;;;;;;13.54;100.00;101449.25;5020634;28;20278;-74
2023/05/20 04:20:25;;;;;;;103.40;94.07;;;;;;;13.33;100.00;101447.63;5022356;28;20053;-74
2023/05/20 04:22:52;;;;;;;101.78;92.18;;;;;;;13.49;100.00;101444.53;5013294;28;20046;-74
2023/05/20 04:25:19;;;;;;;97.80;88.20;;;;;;;13.31;100.00;101447.00;5012951;28;20045;-74
2023/05/20 04:27:46;;;;;;;106.60;96.32;;;;;;;13.58;100.00;101453.13;5017601;28;20480;-74
2023/05/20 04:30:16;;;;;;;109.47;98.22;;;;;;;13.58;100.00;101455.78;5023785;28;20049;-74
2023/05/20 04:32:43;;;;;;;102.32;93.00;;;;;;;13.47;100.00;101449.25;5017978;28;20068;-74
2023/05/20 04:35:12;;;;;;;111.80;101.35;;;;;;;13.88;100.00;101449.97;5024636;28;20057;-74
2023/05/20 04:37:39;;;;;;;116.40;105.22;;;;;;;13.95;100.00;101451.63;5022069;28;20129;-74
2023/05/20 04:40:08;;;;;;;111.07;100.10;;;;;;;14.13;100.00;101452.78;5022350;28;20047;-75
2023/05/20 04:42:34;;;;;;;114.35;103.75;;;;;;;14.16;100.00;101450.53;5015426;28;20045;-74
2023/05/20 04:45:04;;;;;;;111.57;100.70;;;;;;;14.20;100.00;101451.72;5022698;28;20038;-74
2023/05/20 04:47:37;;;;;;;110.18;99.40;;;;;;;13.95;100.00;101448.13;5025844;28;20504;-74
2023/05/20 04:50:05;;;;;;;102.75;92.53;;;;;;;14.04;100.00;101452.22;5017912;28;20056;-74
2023/05/20 04:52:32;;;;;;;106.13;95.78;;;;;;;14.09;100.00;101451.56;5023042;28;20046;-74
2023/05/20 04:55:00;;;;;;;118.53;107.10;;;;;;;14.11;100.00;101450.31;5020346;28;20560;-75
2023/05/20 04:57:27;;;;;;;117.38;106.95;;;;;;;14.09;100.00;101457.72;5020044;28;20533;-74
2023/05/20 04:59:57;;;;;;;112.82;102.20;;;;;;;14.40;100.00;101462.34;5021963;28;20053;-74
2023/05/20 05:02:25;;;;;;;120.45;109.80;;;;;;;14.49;100.00;101457.53;5021642;28;20060;-74
2023/05/20 05:04:54;;;;;;;111.15;100.93;;;;;;;14.82;100.00;101456.56;5023295;28;20085;-74
2023/05/20 05:07:21;;;;;;;114.95;104.15;;;;;;;15.04;100.00;101457.03;5022991;28;20053;-75
2023/05/20 05:09:47;;;;;;;125.35;112.93;;;;;;;15.13;100.00;101453.06;5021934;28;20501;-74
2023/05/20 05:12:14;;;;;;;125.93;114.30;;;;;;;15.30;100.00;101464.03;5019100;28;20045;-74
2023/05/20 05:14:41;;;;;;;126.32;113.57;;;;;;;15.50;100.00;101466.53;5011978;28;20054;-75
2023/05/20 05:17:08;;;;;;;129.40;117.50;;;;;;;15.61;100.00;101473.81;5022607;28;20053;-75
2023/05/20 05:19:35;;;;;;;132.45;120.35;;;;;;;15.89;100.00;101472.56;5022909;28;20090;-74
2023/05/20 05:22:03;;;;;;;135.02;122.68;;;;;;;16.22;100.00;101474.88;5023056;28;20072;-74
2023/05/20 05:24:30;;;;;;;126.13;114.43;;;;;;;16.18;100.00;101473.66;5022305;28;20065;-75
2023/05/20 05:26:58;;;;;;;132.90;121.28;;;;;;;16.27;100.00;101475.81;5017880;28;20050;-74
2023/05/20 05:29:24;;;;;;;132.55;120.72;;;;;;;16.45;100.00;101477.63;5022796;28;20056;-75
2023/05/20 05:31:51;;;;;;;140.05;127.30;;;;;;;16.37;100.00;101472.63;5020587;28;20116;-75
2023/05/20 05:34:18;;;;;;;142.50;129.80;;;;;;;16.51;100.00;101467.88;5021004;28;20564;-74
2023/05/20 05:36:45;;;;;;;141.95;129.98;;;;;;;16.56;100.00;101469.88;5023053;28;20247;-74
2023/05/20 05:39:13;;;;;;;148.02;136.00;;;;;;;16.71;100.00;101464.94;5021361;28;20049;-75
2023/05/20 05:41:40;;;;;;;144.48;132.60;;;;;;;16.85;100.00;101461.03;5011262;28;20053;-75
2023/05/20 05:44:07;;;;;;;141.57;130.48;;;;;;;16.88;100.00;101467.78;5023272;28;20050;-74
2023/05/20 05:46:34;;;;;;;145.45;134.07;;;;;;;16.73;100.00;101465.50;5016129;28;20064;-75
2023/05/20 05:49:01;;;;;;;146.30;134.32;;;;;;;16.66;100.00;101468.28;5024479;28;20060;-75
2023/05/20 05:51:28;;;;;;;147.10;135.25;;;;;;;16.80;100.00;101477.00;5020673;28;20432;-75
2023/05/20 05:53:55;;;;;;;136.75;125.32;;;;;;;16.56;100.00;101469.88;5020494;28;20057;-76
2023/05/20 05:56:23;;;;;;;135.90;124.80;;;;;;;16.86;100.00;101464.53;5021317;28;20045;-75
2023/05/20 05:58:50;;;;;;;149.35;137.13;;;;;;;17.12;100.00;101472.16;5018035;28;20053;-75
2023/05/20 06:01:17;;;;;;;142.38;130.80;;;;;;;17.15;100.00;101473.56;5023041;28;20080;-76
2023/05/20 06:03:44;;;;;;;137.10;125.93;;;;;;;17.20;100.00;101471.00;5020191;28;20057;-76
2023/05/20 06:06:10;;;;;;;131.10;120.40;;;;;;;17.14;100.00;101470.06;5020608;28;20057;-76
2023/05/20 06:08:37;;;;;;;136.20;125.30;;;;;;;17.20;100.00;101471.00;5023848;28;20053;-76
2023/05/20 06:11:04;;;;;;;183.90;152.75;;;;;;;17.30;100.00;101457.00;5020215;28;20057;-76
2023/05/20 06:13:32;;;;;;;153.90;137.98;;;;;;;17.14;100.00;101461.19;5021134;28;20627;-76
2023/05/20 06:15:59;;;;;;;136.27;123.57;;;;;;;16.97;100.00;101460.22;5018857;28;20050;-76
2023/05/20 06:18:26;;;;;;;140.52;127.82;;;;;;;17.10;100.00;101468.09;5020904;28;20057;-76
2023/05/20 06:20:59;;;;;;;189.60;150.70;;;;;;;17.04;100.00;101471.69;5021474;28;20052;-75
2023/05/20 06:23:26;;;;;;;145.38;131.93;;;;;;;17.04;100.00;101483.25;5019368;28;20053;-75
2023/05/20 06:26:00;;;;;;;147.95;136.20;;;;;;;17.13;100.00;101486.41;5024683;28;20054;-76
2023/05/20 06:28:27;;;;;;;142.65;130.15;;;;;;;17.23;100.00;101494.72;5020738;28;20045;-76
2023/05/20 06:30:58;;;;;;;141.38;128.90;;;;;;;17.31;100.00;101494.38;5021249;28;20465;-76
2023/05/20 06:33:26;;;;;;;136.98;125.22;;;;;;;17.36;100.00;101490.97;5019401;28;20049;-76
2023/05/20 06:35:53;;;;;;;134.05;122.50;;;;;;;17.47;100.00;101498.25;5022546;28;20052;-76
2023/05/20 06:38:20;;;;;;;131.40;120.00;;;;;;;17.55;100.00;101489.84;5015387;28;20046;-76
2023/05/20 06:40:48;;;;;;;133.27;122.22;;;;;;;17.57;100.00;101489.59;5024102;28;20057;-76
2023/05/20 06:43:15;;;;;;;145.85;133.35;;;;;;;17.96;100.00;101493.47;5019633;28;20077;-76
2023/05/20 06:45:42;;;;;;;155.10;141.90;;;;;;;18.10;100.00;101496.72;5018724;28;20068;-76
2023/05/20 06:48:11;;;;;;;146.73;134.50;;;;;;;18.27;100.00;101486.84;5024441;28;20046;-76
2023/05/20 06:50:38;;;;;;;150.07;135.77;;;;;;;18.02;100.00;101489.81;5025456;28;20049;-75
2023/05/20 06:53:05;;;;;;;131.05;119.82;;;;;;;18.43;100.00;101482.59;5022432;28;20061;-76
2023/05/20 06:55:32;;;;;;;124.47;114.18;;;;;;;18.62;100.00;101474.31;5019708;28;20132;-76
2023/05/20 06:57:59;;;;;;;82.10;75.38;;;;;;;18.63;100.00;101468.69;5020104;28;20075;-76
2023/05/20 07:00:26;;;;;;;62.05;55.67;;;;;;;18.34;100.00;101475.97;5018933;28;20049;-76
2023/05/20 07:02:52;;;;;;;64.38;58.63;;;;;;;18.21;100.00;101471.66;5021722;28;20042;-76
2023/05/20 07:05:21;;;;;;;71.25;64.93;;;;;;;18.44;100.00;101465.38;5016243;28;20061;-76
2023/05/20 07:07:47;;;;;;;68.82;62.58;;;;;;;18.27;100.00;101456.44;5026395;28;20073;-76
2023/05/20 07:10:14;;;;;;;72.07;65.47;;;;;;;18.85;100.00;101451.88;5017978;28;20498;-76
2023/05/20 07:12:41;;;;;;;81.28;73.80;;;;;;;19.29;100.00;101449.38;5018800;28;20445;-76
2023/05/20 07:15:09;;;;;;;65.15;59.17;;;;;;;18.81;100.00;101448.84;5019397;28;20100;-75
2023/05/20 07:17:35;;;;;;;53.53;48.22;;;;;;;18.96;100.00;101451.00;5022989;28;20429;-76
2023/05/20 07:20:03;;;;;;;60.30;54.53;;;;;;;18.72;100.00;101448.41;5014549;28;20437;-76
2023/05/20 07:22:31;;;;;;;56.72;51.70;;;;;;;18.45;100.00;101448.19;5017319;28;20490;-76
2023/05/20 07:24:58;;;;;;;59.67;54.15;;;;;;;18.60;100.00;101446.84;5023545;28;20548;-76
2023/05/20 07:27:25;;;;;;;64.47;58.90;;;;;;;18.70;100.00;101437.09;5015444;28;20042;-76
2023/05/20 07:29:51;;;;;;;61.17;55.78;;;;;;;17.91;100.00;101446.84;5023639;28;20061;-76
2023/05/20 07:32:18;;;;;;;64.38;58.10;;;;;;;18.01;100.00;101426.38;5017890;28;20398;-76
2023/05/20 07:34:45;;;;;;;69.85;63.55;;;;;;;18.17;100.00;101430.19;5014700;28;20054;-76
2023/05/20 07:37:12;;;;;;;58.63;53.20;;;;;;;17.77;100.00;101425.63;5021816;28;20517;-76
2023/05/20 07:39:40;;;;;;;60.08;54.35;;;;;;;18.16;100.00;101423.19;5018977;28;20548;-76
2023/05/20 07:42:07;;;;;;;57.25;52.03;;;;;;;18.01;100.00;101421.00;5023170;28;20687;-76
2023/05/20 07:44:34;;;;;;;60.78;55.33;;;;;;;18.01;100.00;101404.06;5023748;28;20054;-76
2023/05/20 07:47:01;;;;;;;64.28;58.40;;;;;;;18.02;100.00;101394.94;5024370;28;20369;-76
2023/05/20 07:49:28;;;;;;;65.93;59.90;;;;;;;18.01;100.00;101394.13;5027292;28;20594;-76
2023/05/20 07:51:54;;;;;;;64.78;58.75;;;;;;;18.17;100.00;101383.66;5028080;28;20099;-76
2023/05/20 07:54:21;;;;;;;71.38;65.25;;;;;;;18.45;100.00;101380.13;5021224;28;20057;-76
2023/05/20 07:56:50;;;;;;;67.20;61.35;;;;;;;18.24;100.00;101382.44;5022894;28;20049;-76
2023/05/20 07:59:17;;;;;;;76.45;69.82;;;;;;;17.91;100.00;101385.84;5021963;28;20061;-76
2023/05/20 08:01:43;;;;;;;91.40;83.82;;;;;;;17.97;100.00;101384.06;5021861;28;20441;-76
2023/05/20 08:04:10;;;;;;;101.88;93.90;;;;;;;17.74;100.00;101376.88;5022655;28;20524;-76
2023/05/20 08:06:38;;;;;;;93.78;85.72;;;;;;;17.87;100.00;101390.06;5013678;28;20061;-76
2023/05/20 08:09:06;;;;;;;80.22;73.32;;;;;;;18.29;100.00;101379.88;5017892;28;20053;-76
2023/05/20 08:11:32;;;;;;;77.78;70.82;;;;;;;18.21;100.00;101380.25;5020012;28;20349;-76
2023/05/20 08:14:01;;;;;;;97.70;89.70;;;;;;;18.03;100.00;101377.75;5022253;28;20430;-76
2023/05/20 08:16:28;;;;;;;105.68;97.03;;;;;;;18.33;100.00;101382.06;5018258;28;20053;-76
2023/05/20 08:18:55;;;;;;;96.18;88.35;;;;;;;18.26;100.00;101382.22;5025922;28;20136;-76
2023/05/20 08:21:22;;;;;;;96.97;89.18;;;;;;;18.13;100.00;101390.59;5021155;28;20060;-76
2023/05/20 08:23:49;;;;;;;105.65;97.25;;;;;;;18.30;100.00;101389.56;5022213;28;20046;-76
2023/05/20 08:26:16;;;;;;;99.03;91.13;;;;;;;18.24;100.00;101392.41;5019442;28;20049;-76
2023/05/20 08:28:43;;;;;;;97.68;89.93;;;;;;;18.34;100.00;101397.16;5021749;28;20057;-76
2023/05/20 08:31:11;;;;;;;77.72;70.97;;;;;;;18.42;100.00;101396.75;5017820;28;20060;-76
2023/05/20 08:33:38;;;;;;;88.85;81.45;;;;;;;18.47;100.00;101402.22;5014090;28;20049;-76
2023/05/20 08:36:05;;;;;;;63.63;57.75;;;;;;;18.63;100.00;101406.81;5022930;28;20516;-76
2023/05/20 08:38:32;;;;;;;55.83;50.63;;;;;;;18.64;100.00;101415.69;5012612;28;20144;-76
2023/05/20 08:40:59;;;;;;;65.32;59.85;;;;;;;18.60;100.00;101420.75;5018381;28;20469;-76
2023/05/20 08:43:26;;;;;;;69.93;63.63;;;;;;;18.62;100.00;101429.41;5023824;28;20053;-76
2023/05/20 08:45:54;;;;;;;60.05;54.40;;;;;;;18.69;100.00;101451.56;5017221;28;20512;-76
2023/05/20 08:48:23;;;;;;;67.20;61.47;;;;;;;19.10;100.00;101457.69;5021742;28;20133;-76
2023/05/20 08:50:51;;;;;;;72.93;66.43;;;;;;;19.20;100.00;101459.72;5022039;28;20065;-76
2023/05/20 08:53:18;;;;;;;85.45;78.57;;;;;;;19.41;100.00;101463.56;5021804;28;20095;-76
2023/05/20 08:55:48;;;;;;;55.83;50.70;;;;;;;19.37;100.00;101454.34;5019903;28;20049;-76
2023/05/20 08:58:16;;;;;;;70.93;64.65;;;;;;;19.52;100.00;101459.16;5022480;28;20111;-76
2023/05/20 09:00:43;;;;;;;79.40;71.95;;;;;;;19.78;100.00;101465.72;5020797;28;20141;-76
2023/05/20 09:03:10;;;;;;;85.32;77.40;;;;;;;20.16;100.00;101461.34;5019016;28;20433;-76
2023/05/20 09:05:38;;;;;;;87.55;79.88;;;;;;;20.43;100.00;101459.50;5023504;28;20053;-76
2023/05/20 09:08:06;;;;;;;70.28;63.97;;;;;;;20.30;100.00;101458.03;5022314;28;20045;-76
2023/05/20 09:10:34;;;;;;;51.42;46.53;;;;;;;20.26;100.00;101456.88;5021534;28;20563;-76
2023/05/20 09:13:02;;;;;;;57.60;51.95;;;;;;;20.83;100.00;101458.28;5028102;28;20049;-76
2023/05/20 09:15:29;;;;;;;45.65;41.05;;;;;;;20.84;100.00;101457.22;5020583;28;20111;-76
2023/05/20 09:17:55;;;;;;;47.00;42.20;;;;;;;20.86;100.00;101446.97;5019507;28;20046;-76
2023/05/20 09:20:24;;;;;;;46.70;42.15;;;;;;;20.85;100.00;101450.75;5016619;28;20057;-76
2023/05/20 09:22:52;;;;;;;40.55;36.50;;;;;;;20.50;100.00;101440.41;5021972;28;20049;-77
2023/05/20 09:25:20;;;;;;;40.28;36.40;;;;;;;20.44;100.00;101436.03;5021156;28;20046;-76
2023/05/20 09:27:47;;;;;;;40.63;36.53;;;;;;;20.44;100.00;101438.72;5022567;28;20053;-76
2023/05/20 09:30:14;;;;;;;40.70;36.42;;;;;;;20.49;100.00;101433.41;5023008;28;20050;-76
2023/05/20 09:32:40;;;;;;;35.53;32.33;;;;;;;20.73;100.00;101423.13;5017549;28;20410;-76
2023/05/20 09:35:08;;;;;;;37.38;33.60;;;;;;;21.13;100.00;101414.53;5025402;28;20444;-76
2023/05/20 09:37:36;;;;;;;38.13;33.88;;;;;;;20.81;100.00;101417.22;5020286;28;20060;-76
2023/05/20 09:40:08;;;;;;;32.85;29.73;;;;;;;20.68;100.00;101413.09;5016617;28;20053;-76
2023/05/20 09:42:40;;;;;;;36.15;32.83;;;;;;;20.53;100.00;101421.03;5022955;28;20428;-76
2023/05/20 09:45:08;;;;;;;;;;;;;;;20.54;100.00;101414.56;5021221;28;20092;-76
2023/05/20 09:47:36;;;;;;;38.13;34.63;;;;;;;20.13;100.00;101403.34;5021165;28;19931;-76
2023/05/20 09:50:04;;;;;;;41.28;37.58;;;;;;;20.80;100.00;101399.41;5021055;28;20516;-76
2023/05/20 09:52:31;;;;;;;31.75;29.02;;;;;;;20.08;100.00;101396.00;5011580;28;20057;-76
2023/05/20 09:55:00;;;;;;;33.20;30.20;;;;;;;20.91;100.00;101381.41;5022618;28;20079;-76
2023/05/20 09:57:33;;;;;;;31.98;29.08;;;;;;;21.49;100.00;101387.75;5016794;28;20045;-76
2023/05/20 10:00:00;;;;;;;32.35;29.42;;;;;;;22.39;100.00;101391.06;5018955;28;20053;-76
2023/05/20 10:02:28;;;;;;;31.80;28.65;;;;;;;22.27;100.00;101386.94;5021327;28;20053;-75
2023/05/20 10:04:57;;;;;;;28.92;26.50;;;;;;;21.62;100.00;101381.06;5023121;28;20049;-76
2023/05/20 10:07:55;;;;;;;32.17;29.33;;;;;;;21.79;100.00;101375.47;5020689;28;20061;-76
2023/05/20 10:10:32;;;;;;;28.13;25.83;;;;;;;21.77;100.00;101375.72;5022696;28;20049;-76
2023/05/20 10:13:12;;;;;;;36.13;32.67;;;;;;;22.54;100.00;101375.88;5022787;28;20414;-75
2023/05/20 10:15:50;;;;;;;31.02;28.33;;;;;;;22.32;100.00;101378.84;5022229;28;20046;-74
2023/05/20 10:18:30;;;;;;;30.88;28.17;;;;;;;22.66;100.00;101370.22;5020345;28;20060;-76
2023/05/20 10:20:57;;;;;;;32.80;29.90;;;;;;;22.47;100.00;101375.34;5022967;28;20436;-76
2023/05/20 10:23:28;;;;;;;30.55;27.35;;;;;;;21.77;100.00;101374.91;5019374;28;20046;-76
2023/05/20 10:25:57;;;;;;;33.42;30.50;;;;;;;22.58;100.00;101361.56;5022743;28;20068;-75
2023/05/20 10:28:34;;;;;;;29.42;27.05;;;;;;;21.91;100.00;101360.63;5021153;28;20069;-75
2023/05/20 10:31:03;;;;;;;32.35;29.25;;;;;;;22.89;100.00;101353.41;5021656;28;20052;-76
2023/05/20 10:33:41;;;;;;;35.38;32.38;;;;;;;23.43;100.00;101351.97;5019936;28;20072;-76
2023/05/20 10:36:08;;;;;;;28.58;25.98;;;;;;;22.92;100.00;101346.66;5022325;28;20502;-76
2023/05/20 10:38:34;;;;;;;34.75;31.52;;;;;;;23.01;100.00;101336.91;5018333;28;20434;-76
2023/05/20 10:41:10;;;;;;;28.35;25.85;;;;;;;22.18;100.00;101338.81;5023268;28;20531;-75
2023/05/20 10:43:38;;;;;;;30.27;27.48;;;;;;;22.49;100.00;101336.13;5020379;28;20061;-76
2023/05/20 10:46:05;;;;;;;30.85;27.73;;;;;;;22.61;100.00;101323.13;5020514;28;20053;-76
2023/05/20 10:48:33;;;;;;;30.02;27.02;;;;;;;22.49;100.00;101328.00;5020422;28;20132;-76
2023/05/20 10:51:02;;;;;;;30.67;27.77;;;;;;;22.50;100.00;101321.50;5017366;28;20046;-76
2023/05/20 10:53:38;;;;;;;29.15;26.50;;;;;;;21.90;100.00;101309.50;5022884;28;20057;-76
2023/05/20 10:56:06;;;;;;;32.13;28.70;;;;;;;22.48;100.00;101312.84;5013521;28;20053;-76
2023/05/20 10:58:39;;;;;;;32.33;29.27;;;;;;;22.33;100.00;101300.13;5018791;28;20045;-76